Time;durP1;ratioP1;P1;durP2;ratioP2;P2;SDS_P1;SDS_P2;PMS_P1;PMS_P2;Temp;Humidity;BMP_temperature;BMP_pressure;BME280_temperature;BME280_humidity;BME280_pressure;Samples;Min_cycle;Max_cycle;Signal;HPM_P1;HPM_P2
2021/12/10 00:01:22;;;;;;;20.03;9.83;;;;;3.50;95007.00;;;;8431441;28;20224;-76
2021/12/10 00:05:54;;;;;;;23.50;9.23;;;;;3.50;95008.00;;;;8431535;28;20271;-75
2021/12/10 00:10:01;;;;;;;25.37;9.23;;;;;3.40;94993.00;;;;8430796;28;20612;-75
2021/12/10 00:14:35;;;;;;;25.20;10.50;;;;;3.50;94996.00;;;;8430671;28;20228;-75
2021/12/10 00:18:42;;;;;;;19.60;9.10;;;;;3.50;94993.00;;;;8430606;28;20572;-75
2021/12/10 00:22:53;;;;;;;29.27;9.70;;;;;3.50;94990.00;;;;8431151;28;20240;-75
2021/12/10 00:27:28;;;;;;;23.53;9.47;;;;;3.50;94978.00;;;;8431062;28;20216;-75
2021/12/10 00:31:46;;;;;;;21.80;9.67;;;;;3.60;94977.00;;;;8430449;28;20221;-75
2021/12/10 00:35:50;;;;;;;19.63;9.53;;;;;3.50;94972.00;;;;8430437;28;20280;-75
2021/12/10 00:39:56;;;;;;;27.80;10.43;;;;;3.60;94968.00;;;;8430654;28;20252;-75
2021/12/10 00:44:33;;;;;;;21.67;9.17;;;;;3.60;94956.00;;;;8430017;28;20308;-76
2021/12/10 00:48:39;;;;;;;18.47;8.53;;;;;3.50;94945.00;;;;8430248;28;20222;-75
2021/12/10 00:52:43;;;;;;;21.80;9.30;;;;;3.60;94948.00;;;;8429187;28;20243;-74
2021/12/10 00:56:47;;;;;;;21.43;8.97;;;;;3.60;94949.00;;;;8430423;28;20225;-75
2021/12/10 01:00:53;;;;;;;34.73;10.30;;;;;3.50;94940.00;;;;8429476;28;20246;-75
2021/12/10 01:05:00;;;;;;;19.30;9.87;;;;;3.50;94928.00;;;;8429805;28;20234;-75
2021/12/10 01:09:30;;;;;;;19.80;8.37;;;;;3.40;94922.00;;;;8429475;28;20240;-75
2021/12/10 01:13:36;;;;;;;23.47;8.93;;;;;3.40;94917.00;;;;8429842;28;20217;-75
2021/12/10 01:26:52;;;;;;;20.63;9.57;;;;;3.30;94896.00;;;;8407410;28;20269;-76
2021/12/10 01:31:05;;;;;;;19.93;8.97;;;;;3.40;94887.00;;;;8429195;28;20241;-75
2021/12/10 01:35:12;;;;;;;20.10;8.37;;;;;3.40;94882.00;;;;8428851;28;20258;-76
2021/12/10 01:39:21;;;;;;;28.30;8.67;;;;;3.40;94873.00;;;;8428099;28;20236;-75
2021/12/10 01:44:00;;;;;;;26.80;9.63;;;;;3.40;94869.00;;;;8429050;28;20242;-75
2021/12/10 01:48:08;;;;;;;21.57;8.87;;;;;3.30;94865.00;;;;8428191;28;20219;-74
2021/12/10 01:52:13;;;;;;;21.13;8.50;;;;;3.30;94853.00;;;;8428210;28;20548;-74
2021/12/10 01:56:22;;;;;;;25.33;9.03;;;;;3.30;94850.00;;;;8422703;28;20224;-75
2021/12/10 02:00:29;;;;;;;18.93;9.17;;;;;3.30;94841.00;;;;8428159;28;20306;-74
2021/12/10 02:05:04;;;;;;;25.00;9.43;;;;;3.20;94825.00;;;;8427773;28;20304;-75
2021/12/10 02:09:09;;;;;;;22.83;9.00;;;;;3.20;94818.00;;;;8427752;28;20218;-75
2021/12/10 02:13:45;;;;;;;19.40;8.93;;;;;3.20;94813.00;;;;8427459;28;20225;-74
2021/12/10 02:17:50;;;;;;;22.00;9.23;;;;;3.20;94800.00;;;;8427445;28;20253;-75
2021/12/10 02:21:55;;;;;;;21.90;9.37;;;;;3.20;94799.00;;;;8426858;28;20257;-75
2021/12/10 02:26:01;;;;;;;20.10;9.33;;;;;3.30;94791.00;;;;8427416;28;20237;-75
2021/12/10 02:30:06;;;;;;;28.90;10.13;;;;;3.20;94791.00;;;;8428209;28;20228;-76
2021/12/10 02:34:10;;;;;;;23.27;9.43;;;;;3.30;94781.00;;;;8434924;28;20254;-75
2021/12/10 02:38:16;;;;;;;29.70;8.93;;;;;3.30;94770.00;;;;8434530;28;20593;-75
2021/12/10 02:42:20;;;;;;;28.70;9.63;;;;;3.30;94773.00;;;;8434749;28;20241;-75
2021/12/10 02:46:23;;;;;;;22.47;8.83;;;;;3.30;94764.00;;;;8433739;28;20223;-74
2021/12/10 02:50:29;;;;;;;18.00;8.70;;;;;3.30;94756.00;;;;8433695;28;20225;-75
2021/12/10 02:54:35;;;;;;;22.93;9.43;;;;;3.30;94735.00;;;;8434280;28;20226;-74
2021/12/10 02:58:39;;;;;;;31.73;10.20;;;;;3.30;94740.00;;;;8433304;28;20312;-75
2021/12/10 03:02:44;;;;;;;26.33;9.07;;;;;3.30;94726.00;;;;8433352;22;20238;-74
2021/12/10 03:06:50;;;;;;;31.97;9.47;;;;;3.30;94729.00;;;;8380691;28;20309;-74
2021/12/10 03:10:55;;;;;;;30.13;9.47;;;;;3.30;94717.00;;;;8386132;28;20314;-74
2021/12/10 03:14:59;;;;;;;21.73;10.23;;;;;3.30;94709.00;;;;8386244;28;20308;-73
2021/12/10 03:19:03;;;;;;;25.77;10.03;;;;;3.20;94703.00;;;;8386536;28;20316;-74
2021/12/10 03:23:08;;;;;;;26.93;9.60;;;;;3.20;94703.00;;;;8387081;28;20224;-74
2021/12/10 03:27:14;;;;;;;24.13;11.00;;;;;3.10;94710.00;;;;8385793;28;20225;-73
2021/12/10 03:31:20;;;;;;;26.87;9.43;;;;;3.10;94710.00;;;;8380993;28;20234;-74
2021/12/10 03:35:28;;;;;;;29.00;9.70;;;;;3.10;94695.00;;;;8389935;28;20232;-74
2021/12/10 03:39:31;;;;;;;25.30;9.27;;;;;3.10;94693.00;;;;8410849;28;20335;-74
2021/12/10 03:43:37;;;;;;;30.53;9.67;;;;;3.10;94695.00;;;;8420671;28;20332;-73
2021/12/10 03:47:41;;;;;;;25.70;9.00;;;;;3.10;94693.00;;;;8418976;28;20302;-73
2021/12/10 03:51:45;;;;;;;23.73;8.67;;;;;3.00;94679.00;;;;8378758;28;20237;-73
2021/12/10 03:55:49;;;;;;;19.67;8.60;;;;;3.00;94680.00;;;;8375780;28;20249;-73
2021/12/10 03:59:54;;;;;;;25.57;9.70;;;;;3.00;94662.00;;;;8384210;28;20333;-73
2021/12/10 04:04:01;;;;;;;24.43;9.60;;;;;3.10;94659.00;;;;8357212;28;20349;-73
2021/12/10 04:08:05;;;;;;;27.97;10.63;;;;;3.10;94649.00;;;;8350394;28;20673;-73
2021/12/10 04:12:10;;;;;;;22.33;8.93;;;;;3.10;94650.00;;;;8344311;28;20822;-73
2021/12/10 04:16:16;;;;;;;19.07;8.83;;;;;3.00;94647.00;;;;8335232;28;20305;-73
2021/12/10 04:20:21;;;;;;;21.00;8.97;;;;;3.00;94650.00;;;;8345778;28;20234;-72
2021/12/10 04:24:29;;;;;;;34.20;10.63;;;;;3.00;94641.00;;;;8342286;28;20652;-73
2021/12/10 04:28:33;;;;;;;26.70;9.20;;;;;3.10;94632.00;;;;8352172;28;20266;-73
2021/12/10 04:32:37;;;;;;;26.07;8.77;;;;;3.10;94626.00;;;;8350566;28;20253;-73
2021/12/10 04:36:40;;;;;;;21.00;8.07;;;;;3.20;94618.00;;;;8349407;28;20314;-72
2021/12/10 04:40:47;;;;;;;18.83;8.20;;;;;3.20;94607.00;;;;8348240;28;20262;-73
2021/12/10 04:44:54;;;;;;;16.23;7.93;;;;;3.20;94607.00;;;;8343438;28;20292;-72
2021/12/10 04:49:00;;;;;;;17.30;7.90;;;;;3.20;94602.00;;;;8337095;28;20262;-72
2021/12/10 04:53:07;;;;;;;17.23;8.03;;;;;3.20;94598.00;;;;8346148;28;20314;-72
2021/12/10 04:57:10;;;;;;;17.57;7.87;;;;;3.30;94599.00;;;;8335997;28;20677;-71
2021/12/10 05:01:14;;;;;;;23.10;9.00;;;;;3.20;94590.00;;;;8326472;28;20229;-71
2021/12/10 05:05:19;;;;;;;17.07;8.13;;;;;3.20;94586.00;;;;8336121;28;20256;-71
2021/12/10 05:09:23;;;;;;;19.63;8.70;;;;;3.30;94583.00;;;;8355078;28;20791;-71
2021/12/10 05:13:27;;;;;;;20.10;8.13;;;;;3.30;94581.00;;;;8350570;28;20260;-73
2021/12/10 05:17:33;;;;;;;24.27;8.27;;;;;3.30;94588.00;;;;8342443;28;20309;-71
2021/12/10 05:21:40;;;;;;;18.80;7.83;;;;;3.20;94580.00;;;;8367679;28;20251;-71
2021/12/10 05:25:44;;;;;;;14.13;7.47;;;;;3.20;94578.00;;;;8356402;28;20576;-71
2021/12/10 05:29:47;;;;;;;16.27;7.23;;;;;3.20;94577.00;;;;8366092;28;20243;-72
2021/12/10 05:33:51;;;;;;;21.53;8.07;;;;;3.00;94568.00;;;;8371938;28;20305;-72
2021/12/10 05:37:56;;;;;;;22.23;6.87;;;;;2.90;94559.00;;;;8352753;28;20980;-72
2021/12/10 05:42:00;;;;;;;15.93;7.57;;;;;2.70;94553.00;;;;8368473;28;20262;-71
2021/12/10 05:46:04;;;;;;;13.80;6.43;;;;;2.50;94550.00;;;;8381847;28;20782;-70
2021/12/10 05:50:10;;;;;;;25.43;8.10;;;;;2.50;94548.00;;;;8381070;28;20691;-70
2021/12/10 05:54:15;;;;;;;22.87;8.57;;;;;2.40;94536.00;;;;8369944;28;20220;-72
2021/12/10 05:58:18;;;;;;;22.23;7.73;;;;;2.50;94551.00;;;;8357811;28;20952;-74
2021/12/10 06:02:22;;;;;;;26.80;9.33;;;;;2.50;94542.00;;;;8366520;28;20386;-74
2021/12/10 06:06:28;;;;;;;22.70;8.10;;;;;2.60;94537.00;;;;8345423;28;20229;-74
2021/12/10 06:10:33;;;;;;;23.80;8.27;;;;;2.60;94537.00;;;;8377261;28;20749;-75
2021/12/10 06:14:37;;;;;;;25.40;9.27;;;;;2.70;94529.00;;;;8401012;28;20353;-74
2021/12/10 06:18:40;;;;;;;29.67;8.90;;;;;2.60;94534.00;;;;8391143;28;20255;-74
2021/12/10 06:22:44;;;;;;;19.43;8.40;;;;;2.70;94528.00;;;;8362490;28;20229;-73
2021/12/10 06:26:52;;;;;;;24.03;9.10;;;;;2.70;94529.00;;;;8363226;28;20363;-73
2021/12/10 06:30:55;;;;;;;24.40;8.90;;;;;2.70;94534.00;;;;8325673;28;20307;-73
2021/12/10 06:34:58;;;;;;;20.37;8.87;;;;;2.70;94525.00;;;;8359266;28;20250;-73
2021/12/10 06:39:04;;;;;;;18.03;6.77;;;;;2.70;94509.00;;;;8376438;28;20317;-73
2021/12/10 06:43:09;;;;;;;25.33;8.80;;;;;2.70;94502.00;;;;8364082;28;20671;-74
2021/12/10 06:47:16;;;;;;;21.83;7.87;;;;;2.70;94500.00;;;;8332718;28;20577;-73
2021/12/10 06:51:22;;;;;;;23.73;8.20;;;;;2.80;94486.00;;;;8338456;28;20750;-73
2021/12/10 06:55:26;;;;;;;17.67;6.10;;;;;2.70;94483.00;;;;8364573;28;20240;-73
2021/12/10 06:59:31;;;;;;;20.33;7.00;;;;;2.60;94484.00;;;;8324423;28;20739;-72
2021/12/10 07:03:35;;;;;;;21.90;8.27;;;;;2.70;94472.00;;;;8361450;28;20791;-72
2021/12/10 07:07:39;;;;;;;18.30;6.90;;;;;2.60;94466.00;;;;8377508;28;20228;-72
2021/12/10 07:11:43;;;;;;;20.73;7.83;;;;;2.70;94467.00;;;;8363993;28;20230;-72
2021/12/10 07:15:50;;;;;;;18.13;8.03;;;;;2.80;94462.00;;;;8380041;28;20269;-72
2021/12/10 07:19:54;;;;;;;19.83;7.67;;;;;2.70;94465.00;;;;8386188;28;20331;-71
2021/12/10 07:23:58;;;;;;;31.63;8.07;;;;;2.70;94455.00;;;;8367760;28;20264;-72
2021/12/10 07:28:01;;;;;;;34.33;9.10;;;;;2.70;94451.00;;;;8342087;28;20233;-72
2021/12/10 07:32:07;;;;;;;29.13;8.00;;;;;2.80;94444.00;;;;8351099;28;20231;-72
2021/12/10 07:36:11;;;;;;;20.63;8.10;;;;;2.80;94438.00;;;;8340493;28;20264;-71
2021/12/10 07:40:17;;;;;;;27.20;7.97;;;;;2.70;94429.00;;;;8373728;28;20230;-72
2021/12/10 07:44:21;;;;;;;20.80;8.13;;;;;2.70;94421.00;;;;8349128;28;20324;-71
2021/12/10 07:48:27;;;;;;;27.03;8.43;;;;;2.60;94420.00;;;;8356358;28;20262;-71
2021/12/10 07:52:34;;;;;;;22.53;8.07;;;;;2.60;94421.00;;;;8354037;28;20219;-71
2021/12/10 07:56:37;;;;;;;24.93;7.77;;;;;2.60;94419.00;;;;8353374;28;20259;-71
2021/12/10 08:00:43;;;;;;;25.70;8.17;;;;;2.70;94416.00;;;;8348968;28;20265;-71
2021/12/10 08:04:48;;;;;;;25.33;8.87;;;;;2.70;94410.00;;;;8348216;28;20332;-71
2021/12/10 08:08:51;;;;;;;24.37;9.10;;;;;2.80;94399.00;;;;8358823;28;20226;-71
2021/12/10 08:12:55;;;;;;;21.03;7.63;;;;;2.90;94398.00;;;;8366215;28;20237;-72
2021/12/10 08:16:58;;;;;;;16.60;7.03;;;;;3.00;94389.00;;;;8381742;28;20233;-71
2021/12/10 08:21:04;;;;;;;24.10;7.53;;;;;3.10;94397.00;;;;8384807;28;20250;-71
2021/12/10 08:25:08;;;;;;;13.97;6.13;;;;;3.20;94394.00;;;;8381548;28;20226;-72
2021/12/10 08:29:19;;;;;;;17.50;7.17;;;;;3.10;94394.00;;;;8362548;28;20251;-71
2021/12/10 08:33:24;;;;;;;18.73;8.67;;;;;3.10;94390.00;;;;8383678;28;20312;-72
2021/12/10 08:37:29;;;;;;;21.87;8.13;;;;;3.20;94389.00;;;;8385388;28;20249;-71
2021/12/10 08:41:34;;;;;;;21.53;7.30;;;;;3.30;94377.00;;;;8388450;28;20303;-72
2021/12/10 08:45:40;;;;;;;20.80;7.50;;;;;3.30;94381.00;;;;8387676;28;20255;-72
2021/12/10 08:49:44;;;;;;;23.53;6.87;;;;;3.30;94376.00;;;;8383804;28;20230;-71
2021/12/10 08:53:49;;;;;;;22.43;8.60;;;;;3.30;94382.00;;;;8385157;28;20241;-73
2021/12/10 08:57:52;;;;;;;21.90;8.00;;;;;3.30;94375.00;;;;8385217;28;20727;-73
2021/12/10 09:01:59;;;;;;;19.53;8.13;;;;;3.30;94373.00;;;;8381808;28;20259;-73
2021/12/10 09:06:03;;;;;;;17.47;7.77;;;;;3.20;94357.00;;;;8387150;28;20219;-73
2021/12/10 09:10:13;;;;;;;21.17;9.60;;;;;3.10;94358.00;;;;8387407;28;20230;-72
2021/12/10 09:14:17;;;;;;;13.63;8.00;;;;;3.00;94347.00;;;;8380615;28;20232;-72
2021/12/10 09:18:21;;;;;;;25.57;12.30;;;;;2.90;94349.00;;;;8384908;28;20804;-72
2021/12/10 09:22:25;;;;;;;23.80;10.13;;;;;2.90;94340.00;;;;8377881;28;20349;-73
2021/12/10 09:26:31;;;;;;;19.57;8.03;;;;;3.00;94338.00;;;;8371048;28;20633;-72
2021/12/10 09:30:36;;;;;;;36.00;11.93;;;;;3.00;94336.00;;;;8375331;28;20652;-72
2021/12/10 09:34:40;;;;;;;30.00;11.57;;;;;3.00;94322.00;;;;8382194;28;20267;-72
2021/12/10 09:38:44;;;;;;;28.30;10.03;;;;;3.00;94332.00;;;;8389438;28;20252;-72
2021/12/10 09:42:49;;;;;;;19.87;9.70;;;;;3.00;94320.00;;;;8389047;28;20298;-72
2021/12/10 09:46:54;;;;;;;12.67;6.83;;;;;3.00;94308.00;;;;8387498;28;20244;-72
2021/12/10 09:51:04;;;;;;;14.73;7.10;;;;;3.00;94296.00;;;;8381042;28;20558;-72
2021/12/10 09:55:12;;;;;;;15.80;6.93;;;;;3.00;94288.00;;;;8382023;28;20250;-72
2021/12/10 09:59:18;;;;;;;10.47;6.20;;;;;3.00;94281.00;;;;8381868;28;20374;-72
2021/12/10 10:03:24;;;;;;;12.37;6.50;;;;;3.10;94281.00;;;;8380626;28;20863;-73
2021/12/10 10:07:31;;;;;;;15.63;6.73;;;;;3.20;94271.00;;;;8380061;28;20319;-73
2021/12/10 10:11:36;;;;;;;15.60;5.73;;;;;3.30;94266.00;;;;8363750;28;20337;-73
2021/12/10 10:15:45;;;;;;;13.20;5.57;;;;;3.40;94266.00;;;;8376571;28;20687;-73
2021/12/10 10:19:48;;;;;;;9.67;5.50;;;;;3.50;94257.00;;;;8369075;28;20326;-73
2021/12/10 10:23:53;;;;;;;9.33;5.07;;;;;3.50;94245.00;;;;8353799;28;20229;-73
2021/12/10 10:27:57;;;;;;;16.33;6.10;;;;;3.50;94233.00;;;;8381377;28;20279;-73
2021/12/10 10:32:09;;;;;;;12.77;5.50;;;;;3.60;94224.00;;;;8382780;28;20231;-72
2021/12/10 10:36:19;;;;;;;12.20;5.57;;;;;3.60;94226.00;;;;8391006;28;20236;-75
2021/12/10 10:40:26;;;;;;;8.90;5.17;;;;;3.70;94217.00;;;;8381151;28;20232;-75
2021/12/10 10:44:30;;;;;;;13.20;5.10;;;;;3.70;94221.00;;;;8380708;28;20284;-74
2021/12/10 10:48:35;;;;;;;15.23;5.40;;;;;3.80;94212.00;;;;8410565;28;20258;-74
2021/12/10 10:52:43;;;;;;;10.10;5.73;;;;;4.00;94210.00;;;;8412229;28;20829;-74
2021/12/10 10:56:48;;;;;;;17.87;7.40;;;;;4.20;94198.00;;;;8389422;28;20233;-74
2021/12/10 11:01:00;;;;;;;11.97;6.57;;;;;4.30;94193.00;;;;8385630;28;20238;-72
2021/12/10 11:05:25;;;;;;;16.80;5.80;;;;;4.30;94188.00;;;;8386680;28;20569;-74
2021/12/10 11:09:35;;;;;;;21.80;8.33;;;;;4.20;94180.00;;;;8374785;28;20257;-74
2021/12/10 11:13:39;;;;;;;20.60;6.80;;;;;4.10;94159.00;;;;8386478;28;20712;-73
2021/12/10 11:17:49;;;;;;;13.87;6.00;;;;;3.90;94148.00;;;;8385679;28;20226;-74
2021/12/10 11:21:57;;;;;;;18.70;6.23;;;;;3.70;94140.00;;;;8380823;28;20845;-74
2021/12/10 11:26:01;;;;;;;16.57;6.70;;;;;3.40;94105.00;;;;8399815;28;20996;-70
2021/12/10 11:30:12;;;;;;;17.73;6.50;;;;;3.30;94100.00;;;;8403616;28;20253;-71
2021/12/10 11:34:15;;;;;;;14.07;5.67;;;;;3.20;94110.00;;;;8376166;28;20242;-71
2021/12/10 11:38:23;;;;;;;14.27;5.90;;;;;3.20;94121.00;;;;8354506;28;20262;-72
2021/12/10 11:42:41;;;;;;;10.90;4.27;;;;;3.10;94129.00;;;;8329889;28;20255;-71
2021/12/10 11:47:01;;;;;;;12.40;5.17;;;;;3.10;94136.00;;;;8333302;28;20652;-71
2021/12/10 11:51:11;;;;;;;9.17;4.73;;;;;3.20;94135.00;;;;8355237;28;20255;-71
2021/12/10 11:55:15;;;;;;;10.93;4.10;;;;;3.20;94138.00;;;;8362437;28;20677;-70
2021/12/10 11:59:21;;;;;;;19.60;4.70;;;;;3.20;94141.00;;;;8337122;28;20246;-73
2021/12/10 12:03:30;;;;;;;13.57;5.67;;;;;3.20;94142.00;;;;8333291;28;20240;-73
2021/12/10 12:07:38;;;;;;;16.67;5.60;;;;;3.30;94148.00;;;;8374250;28;20270;-72
2021/12/10 12:12:06;;;;;;;60.03;15.20;;;;;3.40;94134.00;;;;8378894;28;20608;-72
2021/12/10 12:16:13;;;;;;;24.47;9.37;;;;;3.30;94139.00;;;;8353509;28;20250;-72
2021/12/10 12:20:28;;;;;;;42.60;15.73;;;;;3.30;94135.00;;;;8374871;28;20227;-72
2021/12/10 12:29:00;;;;;;;19.93;6.30;;;;;3.30;94131.00;;;;8343579;28;20221;-72
2021/12/10 12:33:17;;;;;;;30.00;8.63;;;;;3.30;94124.00;;;;8365674;28;20236;-72
2021/12/10 12:37:24;;;;;;;17.63;6.43;;;;;3.30;94120.00;;;;8353631;28;20891;-72
2021/12/10 12:41:49;;;;;;;16.67;6.17;;;;;3.40;94105.00;;;;8353141;28;20241;-73
2021/12/10 12:46:03;;;;;;;13.27;6.53;;;;;3.40;94100.00;;;;8381926;28;20220;-72
2021/12/10 12:50:11;;;;;;;15.20;5.83;;;;;3.40;94105.00;;;;8378336;28;20332;-73
2021/12/10 12:54:15;;;;;;;20.73;6.17;;;;;3.40;94104.00;;;;8384418;28;20224;-74
2021/12/10 12:58:26;;;;;;;17.90;6.07;;;;;3.30;94097.00;;;;8380311;28;20219;-73
2021/12/10 13:02:53;;;;;;;17.07;6.20;;;;;3.20;94096.00;;;;8341170;28;20230;-74
2021/12/10 13:07:00;;;;;;;17.90;6.00;;;;;3.10;94097.00;;;;8366245;28;20234;-73
2021/12/10 13:11:11;;;;;;;14.53;6.27;;;;;3.10;94088.00;;;;8393437;28;20324;-74
2021/12/10 13:15:17;;;;;;;18.67;6.13;;;;;3.10;94079.00;;;;8382968;28;20773;-75
2021/12/10 13:19:25;;;;;;;17.33;5.83;;;;;3.10;94074.00;;;;8382492;28;20233;-75
2021/12/10 13:23:30;;;;;;;14.93;5.03;;;;;3.00;94070.00;;;;8347138;28;20233;-75
2021/12/10 13:27:36;;;;;;;16.27;6.03;;;;;3.00;94087.00;;;;8350934;28;20259;-75
2021/12/10 13:31:47;;;;;;;20.23;6.40;;;;;3.00;94096.00;;;;8349989;28;20247;-75
2021/12/10 13:35:52;;;;;;;18.10;5.90;;;;;3.00;94095.00;;;;8347969;28;20805;-74
2021/12/10 13:39:59;;;;;;;16.00;5.70;;;;;2.90;94097.00;;;;8370374;28;20233;-74
2021/12/10 13:44:09;;;;;;;15.93;6.50;;;;;2.90;94094.00;;;;8381636;28;20260;-73
2021/12/10 13:48:15;;;;;;;15.17;6.57;;;;;2.90;94097.00;;;;8351872;28;20227;-74
2021/12/10 13:52:37;;;;;;;24.60;7.27;;;;;2.80;94097.00;;;;8375575;28;20253;-74
2021/12/10 13:56:53;;;;;;;19.90;6.53;;;;;2.80;94102.00;;;;8343375;28;20688;-75
2021/12/10 14:01:00;;;;;;;29.43;7.03;;;;;2.80;94097.00;;;;8339104;28;20493;-75
2021/12/10 14:05:21;;;;;;;17.30;7.13;;;;;2.70;94097.00;;;;8338843;28;20715;-75
2021/12/10 14:09:41;;;;;;;26.73;9.40;;;;;2.70;94093.00;;;;8346496;28;20878;-74
2021/12/10 14:13:44;;;;;;;37.57;11.03;;;;;2.70;94095.00;;;;8371346;28;20237;-75
2021/12/10 14:17:56;;;;;;;37.93;13.93;;;;;2.70;94102.00;;;;8360569;28;20411;-74
2021/12/10 14:22:37;;;;;;;22.90;8.77;;;;;2.70;94113.00;;;;8364020;28;20811;-75
2021/12/10 14:27:20;;;;;;;24.13;8.40;;;;;2.70;94120.00;;;;8378770;28;20246;-74
2021/12/10 14:31:45;;;;;;;23.67;7.83;;;;;2.70;94125.00;;;;8382168;28;20231;-74
2021/12/10 14:35:54;;;;;;;20.27;7.50;;;;;2.60;94127.00;;;;8366932;28;20239;-74
2021/12/10 14:40:05;;;;;;;33.60;10.53;;;;;2.50;94130.00;;;;8381737;28;20231;-75
2021/12/10 14:44:18;;;;;;;24.90;10.00;;;;;2.50;94126.00;;;;8344869;28;20228;-75
2021/12/10 14:48:21;;;;;;;27.07;9.10;;;;;2.40;94121.00;;;;8374310;28;20252;-75
2021/12/10 14:52:46;;;;;;;27.03;8.50;;;;;2.30;94131.00;;;;8349530;28;20249;-75
2021/12/10 14:57:09;;;;;;;21.27;8.13;;;;;2.30;94138.00;;;;8346715;28;20228;-75
2021/12/10 15:01:37;;;;;;;29.87;9.90;;;;;2.20;94148.00;;;;8351166;28;20225;-75
2021/12/10 15:06:05;;;;;;;29.77;9.50;;;;;2.20;94143.00;;;;8352168;28;20234;-75
2021/12/10 15:10:30;;;;;;;19.93;7.87;;;;;2.20;94155.00;;;;8349314;28;20232;-75
2021/12/10 15:14:57;;;;;;;24.63;9.30;;;;;2.10;94158.00;;;;8349074;28;20705;-75
2021/12/10 15:19:14;;;;;;;27.20;8.00;;;;;2.00;94158.00;;;;8349014;28;20295;-74
2021/12/10 15:23:18;;;;;;;25.90;8.63;;;;;1.90;94159.00;;;;8379461;28;20620;-74
2021/12/10 15:27:38;;;;;;;22.23;9.03;;;;;1.90;94166.00;;;;8380709;28;20247;-75
2021/12/10 15:31:41;;;;;;;28.60;9.57;;;;;1.80;94172.00;;;;8357055;28;20229;-74
2021/12/10 15:35:50;;;;;;;32.13;9.13;;;;;1.80;94170.00;;;;8344097;28;20255;-78
2021/12/10 15:39:59;;;;;;;29.07;9.77;;;;;1.80;94184.00;;;;8385406;28;20303;-75
2021/12/10 15:44:05;;;;;;;34.93;9.80;;;;;1.80;94189.00;;;;8370678;28;20997;-77
2021/12/10 15:48:11;;;;;;;28.43;10.07;;;;;1.80;94189.00;;;;8379093;28;20228;-75
2021/12/10 15:52:20;;;;;;;40.23;11.50;;;;;1.80;94199.00;;;;8386552;28;20258;-75
2021/12/10 15:56:28;;;;;;;28.60;10.47;;;;;1.90;94200.00;;;;8384844;28;20263;-76
2021/12/10 16:00:34;;;;;;;33.93;10.90;;;;;1.90;94201.00;;;;8384149;28;20264;-76
2021/12/10 16:05:01;;;;;;;29.97;10.33;;;;;1.90;94211.00;;;;8370681;28;20220;-76
2021/12/10 16:09:09;;;;;;;32.77;11.93;;;;;1.90;94206.00;;;;8386654;28;20319;-76
2021/12/10 16:13:15;;;;;;;33.90;10.50;;;;;1.90;94210.00;;;;8386628;28;20266;-76
2021/12/10 16:17:19;;;;;;;35.13;11.93;;;;;2.00;94229.00;;;;8378404;28;20603;-76
2021/12/10 16:21:26;;;;;;;42.00;14.70;;;;;2.00;94223.00;;;;8362941;28;20232;-77
2021/12/10 16:25:33;;;;;;;34.23;12.73;;;;;2.10;94226.00;;;;8361317;28;20244;-76
2021/12/10 16:29:43;;;;;;;33.67;11.27;;;;;2.10;94232.00;;;;8385764;28;20251;-77
2021/12/10 16:33:50;;;;;;;33.60;12.50;;;;;2.20;94227.00;;;;8384585;28;20310;-76
2021/12/10 16:37:55;;;;;;;29.07;13.43;;;;;2.20;94227.00;;;;8347741;28;20255;-77
2021/12/10 16:42:00;;;;;;;37.80;13.30;;;;;2.20;94231.00;;;;8353656;28;20228;-74
2021/12/10 16:46:08;;;;;;;37.63;13.17;;;;;2.30;94242.00;;;;8355187;28;20312;-76
2021/12/10 16:50:13;;;;;;;30.27;12.07;;;;;2.40;94239.00;;;;8361427;28;20320;-75
2021/12/10 16:54:19;;;;;;;32.03;12.73;;;;;2.30;94249.00;;;;8345059;28;20249;-74
2021/12/10 16:58:24;;;;;;;53.13;18.83;;;;;2.30;94246.00;;;;8355249;28;20267;-75
2021/12/10 17:02:30;;;;;;;33.13;13.07;;;;;2.40;94246.00;;;;8378347;28;20244;-74
2021/12/10 17:06:37;;;;;;;38.70;12.37;;;;;2.40;94238.00;;;;8349100;28;20227;-75
2021/12/10 17:10:43;;;;;;;37.30;14.13;;;;;2.50;94243.00;;;;8361524;28;20230;-70
2021/12/10 17:14:52;;;;;;;38.90;17.73;;;;;2.50;94265.00;;;;8398807;28;20231;-71
2021/12/10 17:18:57;;;;;;;40.90;15.77;;;;;2.50;94282.00;;;;8377065;28;20260;-71
2021/12/10 17:23:04;;;;;;;44.50;17.53;;;;;2.60;94286.00;;;;8378527;28;20231;-73
2021/12/10 17:27:13;;;;;;;110.53;58.50;;;;;2.60;94283.00;;;;8383222;28;20224;-73
2021/12/10 17:31:22;;;;;;;791.10;353.40;;;;;2.60;94295.00;;;;8414443;28;20225;-74
2021/12/10 17:35:29;;;;;;;78.07;31.43;;;;;2.60;94303.00;;;;8393179;28;20237;-74
2021/12/10 17:39:36;;;;;;;397.80;149.77;;;;;2.60;94308.00;;;;8379895;28;20305;-74
2021/12/10 17:43:43;;;;;;;178.03;65.37;;;;;2.60;94312.00;;;;8381006;28;20234;-74
2021/12/10 17:47:51;;;;;;;717.83;292.93;;;;;2.60;94319.00;;;;8379381;28;20325;-74
2021/12/10 17:51:55;;;;;;;54.70;25.17;;;;;2.60;94321.00;;;;8396967;28;20309;-73
2021/12/10 17:56:03;;;;;;;42.03;19.40;;;;;2.50;94328.00;;;;8384642;28;20255;-75
2021/12/10 18:00:17;;;;;;;34.90;13.77;;;;;2.50;94326.00;;;;8363855;28;20321;-75
2021/12/10 18:04:23;;;;;;;40.33;17.67;;;;;2.50;94336.00;;;;8355723;28;20747;-78
2021/12/10 18:08:29;;;;;;;34.63;15.97;;;;;2.50;94342.00;;;;8336681;28;20321;-77
2021/12/10 18:12:36;;;;;;;39.60;14.07;;;;;2.40;94342.00;;;;8371100;28;20343;-74
2021/12/10 18:16:41;;;;;;;35.63;13.20;;;;;2.40;94343.00;;;;8356638;28;20268;-76
2021/12/10 18:20:48;;;;;;;40.03;15.40;;;;;2.50;94339.00;;;;8362313;28;20676;-75
2021/12/10 18:24:54;;;;;;;46.80;16.17;;;;;2.40;94347.00;;;;8350688;28;20257;-76
2021/12/10 18:29:01;;;;;;;35.93;12.97;;;;;2.40;94350.00;;;;8363249;28;20232;-77
2021/12/10 18:33:09;;;;;;;32.97;12.90;;;;;2.40;94350.00;;;;8378948;28;20228;-76
2021/12/10 18:37:21;;;;;;;23.60;10.47;;;;;2.40;94360.00;;;;8379203;28;20229;-75
2021/12/10 18:41:24;;;;;;;31.60;14.33;;;;;2.50;94364.00;;;;8384358;28;20312;-74
2021/12/10 18:45:31;;;;;;;30.53;11.63;;;;;2.50;94374.00;;;;8362690;28;20274;-75
2021/12/10 18:49:38;;;;;;;28.03;11.23;;;;;2.50;94377.00;;;;8340768;28;20261;-76
2021/12/10 18:53:46;;;;;;;38.30;12.60;;;;;2.40;94380.00;;;;8350532;28;20276;-76
2021/12/10 18:57:51;;;;;;;30.90;12.20;;;;;2.40;94387.00;;;;8353142;28;20261;-77
2021/12/10 19:01:59;;;;;;;28.60;12.00;;;;;2.50;94382.00;;;;8376950;28;20244;-75
2021/12/10 19:06:08;;;;;;;32.27;13.77;;;;;2.40;94391.00;;;;8358416;28;20234;-75
2021/12/10 19:10:21;;;;;;;28.87;11.67;;;;;2.40;94399.00;;;;8344793;28;21959;-76
2021/12/10 19:14:28;;;;;;;26.53;12.17;;;;;2.40;94409.00;;;;8351152;28;20253;-78
2021/12/10 19:18:34;;;;;;;27.70;11.77;;;;;2.40;94409.00;;;;8352192;28;20653;-77
2021/12/10 19:22:42;;;;;;;32.67;12.67;;;;;2.40;94414.00;;;;8365649;28;20225;-76
2021/12/10 19:26:53;;;;;;;24.30;12.27;;;;;2.40;94409.00;;;;8359512;28;20771;-76
2021/12/10 19:31:02;;;;;;;29.27;12.93;;;;;2.30;94424.00;;;;8362626;28;20724;-77
2021/12/10 19:35:12;;;;;;;30.77;13.57;;;;;2.30;94436.00;;;;8373579;28;20365;-75
2021/12/10 19:39:22;;;;;;;36.80;14.27;;;;;2.30;94441.00;;;;8340874;28;20692;-76
2021/12/10 19:43:30;;;;;;;34.63;15.90;;;;;2.30;94438.00;;;;8351192;28;20845;-79
2021/12/10 19:47:37;;;;;;;35.03;16.63;;;;;2.30;94448.00;;;;8344574;28;20698;-77
2021/12/10 19:51:43;;;;;;;32.60;15.17;;;;;2.30;94457.00;;;;8362581;28;20259;-76
2021/12/10 19:55:50;;;;;;;31.57;14.97;;;;;2.30;94456.00;;;;8373583;28;20321;-79
2021/12/10 19:59:59;;;;;;;33.77;15.27;;;;;2.30;94464.00;;;;8372766;28;20327;-82
2021/12/10 20:04:02;;;;;;;32.47;15.43;;;;;2.30;94466.00;;;;8376549;28;20657;-83
2021/12/10 20:08:10;;;;;;;41.87;16.70;;;;;2.30;94476.00;;;;8371758;28;20756;-85
2021/12/10 20:12:20;;;;;;;34.30;15.87;;;;;2.30;94489.00;;;;8348345;28;20330;-81
2021/12/10 20:16:31;;;;;;;36.07;16.17;;;;;2.30;94489.00;;;;8372270;28;20622;-86
2021/12/10 20:20:48;;;;;;;40.40;16.87;;;;;2.30;94500.00;;;;8377852;28;20646;-85
2021/12/10 20:24:57;;;;;;;31.27;16.17;;;;;2.30;94508.00;;;;8382208;28;20969;-87
2021/12/10 20:29:05;;;;;;;32.67;15.93;;;;;2.30;94499.00;;;;8383418;28;20259;-78
2021/12/10 20:33:18;;;;;;;30.40;14.23;;;;;2.30;94505.00;;;;8383508;28;20267;-78
2021/12/10 20:37:25;;;;;;;35.30;15.10;;;;;2.30;94524.00;;;;8375969;28;20677;-83
2021/12/10 20:41:34;;;;;;;37.20;14.30;;;;;2.30;94527.00;;;;8376268;28;20318;-82
2021/12/10 20:45:40;;;;;;;33.47;14.97;;;;;2.30;94530.00;;;;8386808;28;20260;-77
2021/12/10 20:49:49;;;;;;;30.10;14.50;;;;;2.30;94526.00;;;;8384802;28;20254;-79